sensor_id;sensor_type;location;lat;lon;timestamp;pressure;altitude;pressure_sealevel;temperature;humidity
24610;BME280;12758;47.890;11.694;2023-06-19T00:01:13;93622.28;;;23.79;58.55
24610;BME280;12758;47.890;11.694;2023-06-19T00:03:39;93619.44;;;23.83;58.45
24610;BME280;12758;47.890;11.694;2023-06-19T00:06:05;93612.63;;;23.87;57.79
24610;BME280;12758;47.890;11.694;2023-06-19T00:08:31;93620.69;;;23.78;58.34
24610;BME280;12758;47.890;11.694;2023-06-19T00:10:57;93616.88;;;23.68;58.78
24610;BME280;12758;47.890;11.694;2023-06-19T00:13:23;93626.38;;;23.67;59.51
24610;BME280;12758;47.890;11.694;2023-06-19T00:15:49;93616.03;;;23.71;58.88
24610;BME280;12758;47.890;11.694;2023-06-19T00:18:16;93622.69;;;23.78;59.02
24610;BME280;12758;47.890;11.694;2023-06-19T00:20:45;93620.69;;;23.78;58.48
24610;BME280;12758;47.890;11.694;2023-06-19T00:23:11;93616.13;;;23.64;59.27
24610;BME280;12758;47.890;11.694;2023-06-19T00:25:39;93614.63;;;23.56;59.98
24610;BME280;12758;47.890;11.694;2023-06-19T00:28:06;93619.31;;;23.63;59.88
24610;BME280;12758;47.890;11.694;2023-06-19T00:30:37;93620.03;;;23.70;59.88
24610;BME280;12758;47.890;11.694;2023-06-19T00:33:04;93618.47;;;23.69;59.26
24610;BME280;12758;47.890;11.694;2023-06-19T00:35:31;93610.50;;;23.68;59.58
24610;BME280;12758;47.890;11.694;2023-06-19T00:37:57;93608.94;;;23.70;60.07
24610;BME280;12758;47.890;11.694;2023-06-19T00:40:27;93614.13;;;23.65;59.82
24610;BME280;12758;47.890;11.694;2023-06-19T00:42:53;93609.00;;;23.63;60.31
24610;BME280;12758;47.890;11.694;2023-06-19T00:45:19;93619.25;;;23.66;59.80
24610;BME280;12758;47.890;11.694;2023-06-19T00:47:45;93611.72;;;23.67;59.98
24610;BME280;12758;47.890;11.694;2023-06-19T00:50:11;93619.25;;;23.66;59.84
24610;BME280;12758;47.890;11.694;2023-06-19T00:52:38;93609.34;;;23.65;60.11
24610;BME280;12758;47.890;11.694;2023-06-19T00:55:05;93614.59;;;23.60;60.01
24610;BME280;12758;47.890;11.694;2023-06-19T00:57:32;93617.66;;;23.69;59.78
24610;BME280;12758;47.890;11.694;2023-06-19T00:59:59;93614.56;;;23.63;59.87
24610;BME280;12758;47.890;11.694;2023-06-19T01:02:25;93619.34;;;23.59;61.44
24610;BME280;12758;47.890;11.694;2023-06-19T01:04:51;93617.72;;;23.62;59.53
24610;BME280;12758;47.890;11.694;2023-06-19T01:07:19;93620.16;;;23.56;60.23
24610;BME280;12758;47.890;11.694;2023-06-19T01:09:50;93614.69;;;23.53;60.27
24610;BME280;12758;47.890;11.694;2023-06-19T01:12:20;93615.94;;;23.48;60.41
24610;BME280;12758;47.890;11.694;2023-06-19T01:14:53;93614.78;;;23.45;60.93
24610;BME280;12758;47.890;11.694;2023-06-19T01:17:20;93608.91;;;23.40;60.90
24610;BME280;12758;47.890;11.694;2023-06-19T01:19:46;93613.28;;;23.41;60.45
24610;BME280;12758;47.890;11.694;2023-06-19T01:22:23;93601.44;;;23.37;60.94
24610;BME280;12758;47.890;11.694;2023-06-19T01:24:49;93610.13;;;23.39;60.73
24610;BME280;12758;47.890;11.694;2023-06-19T01:27:15;93607.72;;;23.41;60.67
24610;BME280;12758;47.890;11.694;2023-06-19T01:29:41;93617.31;;;23.33;61.60
24610;BME280;12758;47.890;11.694;2023-06-19T01:32:09;93612.66;;;23.26;61.37
24610;BME280;12758;47.890;11.694;2023-06-19T01:34:37;93608.56;;;23.38;60.41
24610;BME280;12758;47.890;11.694;2023-06-19T01:37:03;93614.09;;;23.38;60.57
24610;BME280;12758;47.890;11.694;2023-06-19T01:39:31;93607.41;;;23.35;60.96
24610;BME280;12758;47.890;11.694;2023-06-19T01:41:58;93607.16;;;23.22;61.47
24610;BME280;12758;47.890;11.694;2023-06-19T01:44:24;93608.66;;;23.31;60.78
24610;BME280;12758;47.890;11.694;2023-06-19T01:46:51;93608.66;;;23.31;60.75
24610;BME280;12758;47.890;11.694;2023-06-19T01:49:17;93604.31;;;23.30;60.73
24610;BME280;12758;47.890;11.694;2023-06-19T01:51:43;93603.94;;;23.28;60.70
24610;BME280;12758;47.890;11.694;2023-06-19T01:54:09;93609.13;;;23.25;61.02
24610;BME280;12758;47.890;11.694;2023-06-19T01:56:36;93610.31;;;23.24;60.96
24610;BME280;12758;47.890;11.694;2023-06-19T01:59:02;93608.66;;;23.31;60.69
24610;BME280;12758;47.890;11.694;2023-06-19T02:01:28;93616.59;;;23.29;60.77
24610;BME280;12758;47.890;11.694;2023-06-19T02:03:54;93608.72;;;23.23;60.81
24610;BME280;12758;47.890;11.694;2023-06-19T02:06:20;93610.34;;;23.21;61.09
24610;BME280;12758;47.890;11.694;2023-06-19T02:08:47;93606.06;;;23.16;61.30
24610;BME280;12758;47.890;11.694;2023-06-19T02:11:13;93607.25;;;23.15;61.46
24610;BME280;12758;47.890;11.694;2023-06-19T02:13:39;93606.50;;;23.11;61.28
24610;BME280;12758;47.890;11.694;2023-06-19T02:16:05;93610.88;;;23.12;61.51
24610;BME280;12758;47.890;11.694;2023-06-19T02:18:31;93611.25;;;23.11;61.46
24610;BME280;12758;47.890;11.694;2023-06-19T02:20:58;93605.78;;;23.07;61.55
24610;BME280;12758;47.890;11.694;2023-06-19T02:23:24;93614.06;;;23.07;61.49
24610;BME280;12758;47.890;11.694;2023-06-19T02:25:50;93627.13;;;23.07;61.47
24610;BME280;12758;47.890;11.694;2023-06-19T02:28:16;93622.84;;;23.02;61.69
24610;BME280;12758;47.890;11.694;2023-06-19T02:30:43;93619.63;;;23.07;61.42
24610;BME280;12758;47.890;11.694;2023-06-19T02:33:09;93610.47;;;23.10;61.05
24610;BME280;12758;47.890;11.694;2023-06-19T02:35:35;93621.03;;;22.85;65.30
24610;BME280;12758;47.890;11.694;2023-06-19T02:38:01;93619.59;;;22.73;66.22
24610;BME280;12758;47.890;11.694;2023-06-19T02:40:30;93627.31;;;22.89;62.60
24610;BME280;12758;47.890;11.694;2023-06-19T02:42:56;93628.16;;;22.82;63.72
24610;BME280;12758;47.890;11.694;2023-06-19T02:45:21;93638.00;;;22.87;63.14
24610;BME280;12758;47.890;11.694;2023-06-19T02:47:48;93626.47;;;22.92;62.14
24610;BME280;12758;47.890;11.694;2023-06-19T02:50:15;93633.59;;;22.96;61.79
24610;BME280;12758;47.890;11.694;2023-06-19T02:52:41;93636.75;;;22.95;61.97
24610;BME280;12758;47.890;11.694;2023-06-19T02:55:08;93635.56;;;22.96;62.16
24610;BME280;12758;47.890;11.694;2023-06-19T02:57:34;93639.81;;;23.04;61.74
24610;BME280;12758;47.890;11.694;2023-06-19T03:00:00;93637.44;;;23.06;61.64
24610;BME280;12758;47.890;11.694;2023-06-19T03:02:26;93639.00;;;23.07;61.73
24610;BME280;12758;47.890;11.694;2023-06-19T03:04:53;93636.28;;;23.04;61.87
24610;BME280;12758;47.890;11.694;2023-06-19T03:07:19;93636.00;;;22.91;63.55
24610;BME280;12758;47.890;11.694;2023-06-19T03:09:45;93639.13;;;22.93;62.43
24610;BME280;12758;47.890;11.694;2023-06-19T03:12:10;93632.00;;;22.92;62.46
24610;BME280;12758;47.890;11.694;2023-06-19T03:14:36;93638.75;;;22.94;62.19
24610;BME280;12758;47.890;11.694;2023-06-19T03:17:03;93643.88;;;22.96;62.21
24610;BME280;12758;47.890;11.694;2023-06-19T03:19:29;93647.38;;;23.00;62.10
24610;BME280;12758;47.890;11.694;2023-06-19T03:21:55;93643.88;;;22.96;62.00
24610;BME280;12758;47.890;11.694;2023-06-19T03:24:21;93651.03;;;22.90;62.62
24610;BME280;12758;47.890;11.694;2023-06-19T03:26:47;93650.22;;;22.93;62.56
24610;BME280;12758;47.890;11.694;2023-06-19T03:29:13;93656.56;;;22.90;63.37
24610;BME280;12758;47.890;11.694;2023-06-19T03:31:39;93656.97;;;22.88;62.68
24610;BME280;12758;47.890;11.694;2023-06-19T03:34:05;93656.56;;;22.90;62.40
24610;BME280;12758;47.890;11.694;2023-06-19T03:36:31;93660.50;;;22.89;62.43
24610;BME280;12758;47.890;11.694;2023-06-19T03:38:58;93650.69;;;22.84;62.72
24610;BME280;12758;47.890;11.694;2023-06-19T03:41:24;93661.38;;;22.86;62.68
24610;BME280;12758;47.890;11.694;2023-06-19T03:43:50;93659.78;;;22.85;62.84
24610;BME280;12758;47.890;11.694;2023-06-19T03:46:16;93655.84;;;22.86;62.96
24610;BME280;12758;47.890;11.694;2023-06-19T03:48:42;93657.88;;;22.78;63.36
24610;BME280;12758;47.890;11.694;2023-06-19T03:51:08;93662.59;;;22.81;63.22
24610;BME280;12758;47.890;11.694;2023-06-19T03:53:34;93668.97;;;22.74;65.06
24610;BME280;12758;47.890;11.694;2023-06-19T03:56:00;93661.06;;;22.76;63.46
24610;BME280;12758;47.890;11.694;2023-06-19T03:58:26;93668.22;;;22.70;63.90
24610;BME280;12758;47.890;11.694;2023-06-19T04:00:52;93672.56;;;22.71;63.65
24610;BME280;12758;47.890;11.694;2023-06-19T04:03:18;93674.09;;;22.76;63.41
24610;BME280;12758;47.890;11.694;2023-06-19T04:05:44;93677.69;;;22.73;63.77
24610;BME280;12758;47.890;11.694;2023-06-19T04:08:10;93679.72;;;22.65;63.95
24610;BME280;12758;47.890;11.694;2023-06-19T04:10:36;93679.78;;;22.62;64.66
24610;BME280;12758;47.890;11.694;2023-06-19T04:13:03;93677.78;;;22.62;64.44
24610;BME280;12758;47.890;11.694;2023-06-19T04:15:29;93682.16;;;22.60;64.57
24610;BME280;12758;47.890;11.694;2023-06-19T04:17:57;93679.78;;;22.62;64.18
24610;BME280;12758;47.890;11.694;2023-06-19T04:20:23;93686.91;;;22.59;64.50
24610;BME280;12758;47.890;11.694;2023-06-19T04:22:49;93690.09;;;22.58;65.07
24610;BME280;12758;47.890;11.694;2023-06-19T04:25:15;93697.22;;;22.55;64.98
24610;BME280;12758;47.890;11.694;2023-06-19T04:27:41;93700.38;;;22.57;64.68
24610;BME280;12758;47.890;11.694;2023-06-19T04:30:08;93695.81;;;22.32;67.13
24610;BME280;12758;47.890;11.694;2023-06-19T04:32:35;93697.13;;;22.17;67.46
24610;BME280;12758;47.890;11.694;2023-06-19T04:35:01;93701.50;;;22.07;68.13
24610;BME280;12758;47.890;11.694;2023-06-19T04:37:27;93703.47;;;22.07;68.01
24610;BME280;12758;47.890;11.694;2023-06-19T04:39:53;93706.28;;;22.00;68.94
24610;BME280;12758;47.890;11.694;2023-06-19T04:42:19;93707.09;;;21.97;69.02
24610;BME280;12758;47.890;11.694;2023-06-19T04:44:45;93707.59;;;21.77;71.02
24610;BME280;12758;47.890;11.694;2023-06-19T04:47:12;93715.09;;;21.73;71.58
24610;BME280;12758;47.890;11.694;2023-06-19T04:49:38;93717.56;;;21.64;71.81
24610;BME280;12758;47.890;11.694;2023-06-19T04:52:05;93712.06;;;21.53;72.41
24610;BME280;12758;47.890;11.694;2023-06-19T04:54:31;93721.16;;;21.47;73.82
24610;BME280;12758;47.890;11.694;2023-06-19T04:56:58;93718.34;;;21.54;74.03
24610;BME280;12758;47.890;11.694;2023-06-19T04:59:24;93720.78;;;21.48;74.01
24610;BME280;12758;47.890;11.694;2023-06-19T05:01:50;93735.75;;;21.44;73.65
24610;BME280;12758;47.890;11.694;2023-06-19T05:04:19;93731.03;;;21.33;74.17
24610;BME280;12758;47.890;11.694;2023-06-19T05:06:45;93729.91;;;21.20;74.68
24610;BME280;12758;47.890;11.694;2023-06-19T05:09:11;93738.16;;;21.27;75.28
24610;BME280;12758;47.890;11.694;2023-06-19T05:11:37;93746.13;;;21.00;77.21
24610;BME280;12758;47.890;11.694;2023-06-19T05:14:03;93746.06;;;21.14;75.78
24610;BME280;12758;47.890;11.694;2023-06-19T05:16:29;93752.38;;;21.22;75.62
24610;BME280;12758;47.890;11.694;2023-06-19T05:18:55;93753.22;;;20.90;76.82
24610;BME280;12758;47.890;11.694;2023-06-19T05:21:22;93766.63;;;20.88;78.41
24610;BME280;12758;47.890;11.694;2023-06-19T05:23:48;93761.09;;;21.03;77.36
24610;BME280;12758;47.890;11.694;2023-06-19T05:26:16;93766.63;;;21.06;77.08
24610;BME280;12758;47.890;11.694;2023-06-19T05:28:42;93763.44;;;21.08;76.28
24610;BME280;12758;47.890;11.694;2023-06-19T05:31:08;93777.63;;;21.13;75.35
24610;BME280;12758;47.890;11.694;2023-06-19T05:33:34;93761.84;;;21.14;74.95
24610;BME280;12758;47.890;11.694;2023-06-19T05:36:00;93767.00;;;21.19;74.93
24610;BME280;12758;47.890;11.694;2023-06-19T05:38:27;93767.38;;;21.17;74.44
24610;BME280;12758;47.890;11.694;2023-06-19T05:40:55;93769.69;;;21.33;73.46
24610;BME280;12758;47.890;11.694;2023-06-19T05:43:21;93780.75;;;21.30;73.74
24610;BME280;12758;47.890;11.694;2023-06-19T05:45:48;93781.53;;;21.37;73.45
24610;BME280;12758;47.890;11.694;2023-06-19T05:48:14;93794.19;;;21.38;73.66
24610;BME280;12758;47.890;11.694;2023-06-19T05:50:40;93797.34;;;21.19;75.32
24610;BME280;12758;47.890;11.694;2023-06-19T05:53:06;93800.91;;;21.12;75.93
24610;BME280;12758;47.890;11.694;2023-06-19T05:55:33;93800.88;;;21.27;75.54
24610;BME280;12758;47.890;11.694;2023-06-19T05:57:59;93802.84;;;21.33;75.02
24610;BME280;12758;47.890;11.694;2023-06-19T06:00:25;93808.78;;;21.32;75.25
24610;BME280;12758;47.890;11.694;2023-06-19T06:02:51;93816.66;;;21.40;75.10
24610;BME280;12758;47.890;11.694;2023-06-19T06:05:17;93812.69;;;21.49;74.10
24610;BME280;12758;47.890;11.694;2023-06-19T06:07:44;93805.97;;;21.53;75.38
24610;BME280;12758;47.890;11.694;2023-06-19T06:10:10;93805.59;;;21.51;76.29
24610;BME280;12758;47.890;11.694;2023-06-19T06:12:37;93810.69;;;21.60;75.65
24610;BME280;12758;47.890;11.694;2023-06-19T06:15:04;93815.03;;;21.65;75.35
24610;BME280;12758;47.890;11.694;2023-06-19T06:17:31;93816.19;;;21.67;77.46
24610;BME280;12758;47.890;11.694;2023-06-19T06:19:57;93820.16;;;21.62;78.00
24610;BME280;12758;47.890;11.694;2023-06-19T06:22:23;93824.88;;;21.69;79.24
24610;BME280;12758;47.890;11.694;2023-06-19T06:24:49;93830.34;;;21.76;80.06
24610;BME280;12758;47.890;11.694;2023-06-19T06:27:15;93829.59;;;21.72;80.25
24610;BME280;12758;47.890;11.694;2023-06-19T06:29:42;93840.63;;;21.83;76.04
24610;BME280;12758;47.890;11.694;2023-06-19T06:32:09;93839.81;;;21.82;81.46
24610;BME280;12758;47.890;11.694;2023-06-19T06:34:36;93842.97;;;21.84;79.99
24610;BME280;12758;47.890;11.694;2023-06-19T06:37:03;93847.31;;;21.85;83.57
24610;BME280;12758;47.890;11.694;2023-06-19T06:39:29;93849.28;;;21.89;80.95
24610;BME280;12758;47.890;11.694;2023-06-19T06:41:56;93855.22;;;21.83;83.14
24610;BME280;12758;47.890;11.694;2023-06-19T06:44:22;93857.16;;;21.94;82.68
24610;BME280;12758;47.890;11.694;2023-06-19T06:46:48;93862.66;;;21.97;85.73
24610;BME280;12758;47.890;11.694;2023-06-19T06:49:14;93853.97;;;22.06;83.58
24610;BME280;12758;47.890;11.694;2023-06-19T06:51:42;93861.03;;;22.10;80.90
24610;BME280;12758;47.890;11.694;2023-06-19T06:54:08;93864.16;;;22.23;82.01
24610;BME280;12758;47.890;11.694;2023-06-19T06:56:34;93867.28;;;22.32;83.26
24610;BME280;12758;47.890;11.694;2023-06-19T06:59:00;93864.81;;;22.52;83.98
24610;BME280;12758;47.890;11.694;2023-06-19T07:01:26;93869.06;;;22.68;81.00
24610;BME280;12758;47.890;11.694;2023-06-19T07:03:53;93872.72;;;22.54;80.14
24610;BME280;12758;47.890;11.694;2023-06-19T07:06:19;93871.13;;;22.53;82.06
24610;BME280;12758;47.890;11.694;2023-06-19T07:08:45;93873.06;;;22.60;80.82
24610;BME280;12758;47.890;11.694;2023-06-19T07:11:13;93877.75;;;22.73;81.48
24610;BME280;12758;47.890;11.694;2023-06-19T07:13:39;93879.69;;;22.76;80.62
24610;BME280;12758;47.890;11.694;2023-06-19T07:16:06;93879.69;;;22.76;77.35
24610;BME280;12758;47.890;11.694;2023-06-19T07:18:32;93880.06;;;22.78;77.97
24610;BME280;12758;47.890;11.694;2023-06-19T07:21:01;93886.81;;;22.77;73.28
24610;BME280;12758;47.890;11.694;2023-06-19T07:23:28;93876.47;;;22.82;77.34
24610;BME280;12758;47.890;11.694;2023-06-19T07:25:54;93878.06;;;22.79;79.90
24610;BME280;12758;47.890;11.694;2023-06-19T07:28:20;93882.81;;;22.82;82.04
24610;BME280;12758;47.890;11.694;2023-06-19T07:30:46;93883.97;;;22.85;79.91
24610;BME280;12758;47.890;11.694;2023-06-19T07:33:13;93880.88;;;22.75;80.15
24610;BME280;12758;47.890;11.694;2023-06-19T07:35:39;93882.81;;;22.86;81.73
24610;BME280;12758;47.890;11.694;2023-06-19T07:38:06;93880.41;;;22.88;79.45
24610;BME280;12758;47.890;11.694;2023-06-19T07:40:32;93883.91;;;22.92;79.82
24610;BME280;12758;47.890;11.694;2023-06-19T07:42:58;93878.00;;;22.97;78.44
24610;BME280;12758;47.890;11.694;2023-06-19T07:45:24;93885.09;;;22.98;82.14
24610;BME280;12758;47.890;11.694;2023-06-19T07:47:54;93879.47;;;23.12;83.59
24610;BME280;12758;47.890;11.694;2023-06-19T07:50:20;93890.41;;;23.27;77.32
24610;BME280;12758;47.890;11.694;2023-06-19T07:52:46;93885.00;;;23.12;81.38
24610;BME280;12758;47.890;11.694;2023-06-19T07:55:12;93879.91;;;23.07;81.24
24610;BME280;12758;47.890;11.694;2023-06-19T07:57:38;93887.16;;;23.39;81.81
24610;BME280;12758;47.890;11.694;2023-06-19T08:00:05;93873.38;;;23.32;76.90
24610;BME280;12758;47.890;11.694;2023-06-19T08:02:36;93873.66;;;23.44;79.48
24610;BME280;12758;47.890;11.694;2023-06-19T08:05:02;93879.00;;;23.62;77.35
24610;BME280;12758;47.890;11.694;2023-06-19T08:07:28;93884.47;;;23.77;73.87
24610;BME280;12758;47.890;11.694;2023-06-19T08:09:54;93886.75;;;23.82;77.63
24610;BME280;12758;47.890;11.694;2023-06-19T08:12:21;93874.41;;;23.90;77.40
24610;BME280;12758;47.890;11.694;2023-06-19T08:14:47;93877.34;;;23.72;77.62
24610;BME280;12758;47.890;11.694;2023-06-19T08:17:13;93875.72;;;23.78;76.49
24610;BME280;12758;47.890;11.694;2023-06-19T08:19:39;93876.28;;;24.00;78.38
24610;BME280;12758;47.890;11.694;2023-06-19T08:22:05;93876.03;;;24.22;75.45
24610;BME280;12758;47.890;11.694;2023-06-19T08:24:31;93876.03;;;24.22;69.78
24610;BME280;12758;47.890;11.694;2023-06-19T08:26:57;93873.13;;;24.32;73.40
24610;BME280;12758;47.890;11.694;2023-06-19T08:29:24;93879.22;;;24.54;69.91
24610;BME280;12758;47.890;11.694;2023-06-19T08:31:50;93871.63;;;24.58;71.98
24610;BME280;12758;47.890;11.694;2023-06-19T08:34:16;93873.88;;;24.67;72.34
24610;BME280;12758;47.890;11.694;2023-06-19T08:36:42;93873.19;;;24.59;74.02
24610;BME280;12758;47.890;11.694;2023-06-19T08:39:08;93882.94;;;24.40;75.35
24610;BME280;12758;47.890;11.694;2023-06-19T08:41:35;93876.44;;;24.54;71.72
24610;BME280;12758;47.890;11.694;2023-06-19T08:44:02;93872.72;;;24.34;73.63
24610;BME280;12758;47.890;11.694;2023-06-19T08:46:29;93872.00;;;24.26;74.95
24610;BME280;12758;47.890;11.694;2023-06-19T08:48:55;93870.56;;;24.14;76.08
24610;BME280;12758;47.890;11.694;2023-06-19T08:51:22;93875.28;;;24.17;75.33
24610;BME280;12758;47.890;11.694;2023-06-19T08:53:49;93872.13;;;24.15;77.46
24610;BME280;12758;47.890;11.694;2023-06-19T08:56:16;93868.91;;;24.21;76.19
24610;BME280;12758;47.890;11.694;2023-06-19T08:58:42;93867.31;;;24.20;76.38
24610;BME280;12758;47.890;11.694;2023-06-19T09:01:09;93878.31;;;24.27;74.84
24610;BME280;12758;47.890;11.694;2023-06-19T09:03:35;93871.34;;;24.15;74.76
24610;BME280;12758;47.890;11.694;2023-06-19T09:06:06;93874.88;;;24.53;73.99
24610;BME280;12758;47.890;11.694;2023-06-19T09:08:33;93871.31;;;24.80;71.78
24610;BME280;12758;47.890;11.694;2023-06-19T09:11:00;93870.88;;;24.54;73.14
24610;BME280;12758;47.890;11.694;2023-06-19T09:13:27;93873.19;;;24.59;72.55
24610;BME280;12758;47.890;11.694;2023-06-19T09:15:58;93870.91;;;25.08;69.33
24610;BME280;12758;47.890;11.694;2023-06-19T09:18:25;93873.25;;;25.14;69.38
24610;BME280;12758;47.890;11.694;2023-06-19T09:20:53;93866.59;;;24.77;69.34
24610;BME280;12758;47.890;11.694;2023-06-19T09:23:19;93867.13;;;24.68;69.88
24610;BME280;12758;47.890;11.694;2023-06-19T09:25:46;93864.88;;;24.59;71.40
24610;BME280;12758;47.890;11.694;2023-06-19T09:28:17;93860.22;;;24.49;71.17
24610;BME280;12758;47.890;11.694;2023-06-19T09:30:54;93854.81;;;24.38;72.62
24610;BME280;12758;47.890;11.694;2023-06-19T09:33:20;93870.66;;;24.69;76.02
24610;BME280;12758;47.890;11.694;2023-06-19T09:35:46;93866.41;;;24.91;69.82
24610;BME280;12758;47.890;11.694;2023-06-19T09:38:13;93866.50;;;24.84;69.78
24610;BME280;12758;47.890;11.694;2023-06-19T09:40:42;93852.66;;;24.53;69.04
24610;BME280;12758;47.890;11.694;2023-06-19T09:43:09;93858.28;;;24.46;70.17
24610;BME280;12758;47.890;11.694;2023-06-19T09:45:35;93856.28;;;24.77;72.22
24610;BME280;12758;47.890;11.694;2023-06-19T09:48:01;93858.44;;;24.93;71.93
24610;BME280;12758;47.890;11.694;2023-06-19T09:50:28;93849.50;;;25.05;71.95
24610;BME280;12758;47.890;11.694;2023-06-19T09:52:54;93847.72;;;25.19;70.59
24610;BME280;12758;47.890;11.694;2023-06-19T09:55:21;93852.44;;;25.22;71.06
24610;BME280;12758;47.890;11.694;2023-06-19T09:57:49;93848.22;;;25.37;72.08
24610;BME280;12758;47.890;11.694;2023-06-19T10:00:16;93847.84;;;25.35;71.64
24610;BME280;12758;47.890;11.694;2023-06-19T10:02:48;93845.34;;;25.21;69.32
24610;BME280;12758;47.890;11.694;2023-06-19T10:05:14;93849.31;;;25.20;70.78
24610;BME280;12758;47.890;11.694;2023-06-19T10:07:42;93843.53;;;25.34;72.74
24610;BME280;12758;47.890;11.694;2023-06-19T10:10:10;93835.28;;;25.50;69.61
24610;BME280;12758;47.890;11.694;2023-06-19T10:12:40;93827.63;;;25.35;68.62
24610;BME280;12758;47.890;11.694;2023-06-19T10:15:16;93831.28;;;25.51;70.15
24610;BME280;12758;47.890;11.694;2023-06-19T10:17:44;93830.47;;;25.31;72.88
24610;BME280;12758;47.890;11.694;2023-06-19T10:20:25;93830.97;;;24.99;70.09
24610;BME280;12758;47.890;11.694;2023-06-19T10:22:57;93833.56;;;25.09;74.89
24610;BME280;12758;47.890;11.694;2023-06-19T10:25:24;93826.91;;;25.74;68.27
24610;BME280;12758;47.890;11.694;2023-06-19T10:27:51;93822.56;;;25.73;67.35
24610;BME280;12758;47.890;11.694;2023-06-19T10:30:18;93833.72;;;25.49;67.80
24610;BME280;12758;47.890;11.694;2023-06-19T10:32:44;93829.03;;;24.96;70.21
24610;BME280;12758;47.890;11.694;2023-06-19T10:35:10;93829.13;;;25.39;69.04
24610;BME280;12758;47.890;11.694;2023-06-19T10:37:36;93818.91;;;25.32;68.28
24610;BME280;12758;47.890;11.694;2023-06-19T10:40:03;93829.25;;;25.32;67.58
24610;BME280;12758;47.890;11.694;2023-06-19T10:42:33;93820.44;;;25.37;68.63
24610;BME280;12758;47.890;11.694;2023-06-19T10:45:02;93823.13;;;25.64;66.97
24610;BME280;12758;47.890;11.694;2023-06-19T10:47:28;93824.94;;;25.51;67.32
24610;BME280;12758;47.890;11.694;2023-06-19T10:49:54;93809.66;;;25.63;66.14
24610;BME280;12758;47.890;11.694;2023-06-19T10:52:20;93807.13;;;25.92;66.85
24610;BME280;12758;47.890;11.694;2023-06-19T10:54:50;93815.78;;;25.74;66.12
24610;BME280;12758;47.890;11.694;2023-06-19T10:57:26;93806.44;;;26.08;65.93
24610;BME280;12758;47.890;11.694;2023-06-19T10:59:52;93806.22;;;26.55;63.43
24610;BME280;12758;47.890;11.694;2023-06-19T11:02:19;93809.09;;;26.31;62.50
24610;BME280;12758;47.890;11.694;2023-06-19T11:04:45;93794.00;;;25.92;64.74
24610;BME280;12758;47.890;11.694;2023-06-19T11:07:11;93807.69;;;26.23;64.92
24610;BME280;12758;47.890;11.694;2023-06-19T11:09:37;93804.09;;;26.42;64.60
24610;BME280;12758;47.890;11.694;2023-06-19T11:12:04;93797.72;;;26.42;59.84
24610;BME280;12758;47.890;11.694;2023-06-19T11:14:33;93794.41;;;26.51;59.62
24610;BME280;12758;47.890;11.694;2023-06-19T11:17:05;93796.00;;;26.12;64.20
24610;BME280;12758;47.890;11.694;2023-06-19T11:19:32;93787.13;;;25.77;65.94
24610;BME280;12758;47.890;11.694;2023-06-19T11:21:59;93789.28;;;26.65;60.11
24610;BME280;12758;47.890;11.694;2023-06-19T11:24:26;93786.44;;;26.85;58.99
24610;BME280;12758;47.890;11.694;2023-06-19T11:26:52;93781.56;;;27.22;55.99
24610;BME280;12758;47.890;11.694;2023-06-19T11:29:21;93775.84;;;27.29;55.72
24610;BME280;12758;47.890;11.694;2023-06-19T11:31:48;93770.94;;;27.01;56.64
24610;BME280;12758;47.890;11.694;2023-06-19T11:34:14;93771.72;;;27.01;56.33
24610;BME280;12758;47.890;11.694;2023-06-19T11:36:41;93762.59;;;27.17;55.67
24610;BME280;12758;47.890;11.694;2023-06-19T11:39:09;93755.88;;;27.31;59.34
24610;BME280;12758;47.890;11.694;2023-06-19T11:41:36;93765.19;;;26.75;60.29
24610;BME280;12758;47.890;11.694;2023-06-19T11:44:03;93768.13;;;26.52;61.70
24610;BME280;12758;47.890;11.694;2023-06-19T11:46:29;93760.06;;;26.37;62.34
24610;BME280;12758;47.890;11.694;2023-06-19T11:48:56;93761.38;;;26.69;57.77
24610;BME280;12758;47.890;11.694;2023-06-19T11:51:32;93763.78;;;27.00;58.69
24610;BME280;12758;47.890;11.694;2023-06-19T11:53:59;93751.69;;;26.90;55.90
24610;BME280;12758;47.890;11.694;2023-06-19T11:56:25;93753.88;;;27.15;56.56
24610;BME280;12758;47.890;11.694;2023-06-19T11:58:51;93762.75;;;27.43;56.69
24610;BME280;12758;47.890;11.694;2023-06-19T12:01:17;93759.47;;;27.15;59.98
24610;BME280;12758;47.890;11.694;2023-06-19T12:03:43;93757.53;;;26.95;57.84
24610;BME280;12758;47.890;11.694;2023-06-19T12:06:09;93765.09;;;26.95;57.99
24610;BME280;12758;47.890;11.694;2023-06-19T12:08:35;93757.53;;;26.95;58.03
24610;BME280;12758;47.890;11.694;2023-06-19T12:11:03;93754.56;;;27.35;54.91
24610;BME280;12758;47.890;11.694;2023-06-19T12:13:30;93758.91;;;27.36;55.18
24610;BME280;12758;47.890;11.694;2023-06-19T12:15:56;93762.97;;;27.64;56.51
24610;BME280;12758;47.890;11.694;2023-06-19T12:18:22;93750.31;;;26.98;55.80
24610;BME280;12758;47.890;11.694;2023-06-19T12:20:48;93759.25;;;27.06;59.24
24610;BME280;12758;47.890;11.694;2023-06-19T12:23:16;93757.34;;;26.70;58.64
24610;BME280;12758;47.890;11.694;2023-06-19T12:25:43;93755.25;;;26.74;59.64
24610;BME280;12758;47.890;11.694;2023-06-19T12:28:09;93748.75;;;26.97;60.69
24610;BME280;12758;47.890;11.694;2023-06-19T12:30:36;93743.25;;;27.10;58.13
24610;BME280;12758;47.890;11.694;2023-06-19T12:33:02;93744.19;;;27.36;57.74
24610;BME280;12758;47.890;11.694;2023-06-19T12:35:29;93749.38;;;27.50;56.70
24610;BME280;12758;47.890;11.694;2023-06-19T12:37:55;93743.47;;;27.48;56.54
24610;BME280;12758;47.890;11.694;2023-06-19T12:40:21;93743.53;;;27.15;58.52
24610;BME280;12758;47.890;11.694;2023-06-19T12:42:47;93739.66;;;27.09;59.87
24610;BME280;12758;47.890;11.694;2023-06-19T12:45:16;93733.75;;;27.24;58.60
24610;BME280;12758;47.890;11.694;2023-06-19T12:47:42;93731.25;;;27.29;55.57